Woodlands, New Zealand
Current Conditions -  °F | °C
As of 8:30 AM on Sunday 21 Dec 2014 (Local Time) from NZCH Reporting Station
Scattered Clouds Scattered Clouds  
Wind Chill: 63°   Ceiling: Unl
Heat Index: 63°   Visibility: 6mi
Dew Point: 55°   Wind: 13mph
Humidity: 77%   Direction: 220°SW
Pressure: 29.71"   Gusts: NA
Location:  46.37°S, 168.55°E
Report Text: NZCH 202030Z AUTO 22011KT 9999 SCT013/// 17/13 Q1006 TEMPOBKN012
Loading
Personal Weather Stations






























Interactive Weather Map New forecast layout! Learn more

10-Day Weather Forecast

Advertisements
Track Severe Weather on mobile